createdAt,value
2022-08-22T03:51:00.711Z,20.77
2022-08-22T03:54:14.837Z,20.77
2022-08-22T03:57:49.419Z,20.33
2022-08-22T04:01:07.962Z,20.34
2022-08-22T04:04:31.964Z,20.41
2022-08-22T04:07:51.191Z,20.47
2022-08-22T04:11:18.097Z,20.52
2022-08-22T04:14:38.125Z,20.67
2022-08-22T04:17:48.674Z,20.78
2022-08-22T04:20:59.823Z,20.76
2022-08-22T04:24:27.468Z,20.72
2022-08-22T04:27:55.722Z,20.69
2022-08-22T04:31:13.197Z,20.62
2022-08-22T04:34:24.564Z,20.68
2022-08-22T04:37:46.257Z,20.69
2022-08-22T04:40:55.690Z,20.86
2022-08-22T04:44:05.549Z,20.91
2022-08-22T04:47:58.744Z,20.80
2022-08-22T04:51:06.325Z,20.70
2022-08-22T04:54:24.367Z,20.74
2022-08-22T04:57:48.405Z,20.85
2022-08-22T05:01:04.409Z,20.76
2022-08-22T05:04:12.639Z,20.77
2022-08-22T05:07:21.440Z,20.86
2022-08-22T05:10:27.128Z,20.96
2022-08-22T05:13:33.197Z,20.87
2022-08-22T05:16:41.863Z,20.97
2022-08-22T05:19:50.557Z,21.12
2022-08-22T05:22:58.197Z,21.01
2022-08-22T05:26:03.998Z,20.95
2022-08-22T05:29:11.712Z,20.97
2022-08-22T05:32:29.722Z,20.99
2022-08-22T05:35:39.804Z,21.08
2022-08-22T05:38:51.146Z,21.28
2022-08-22T05:42:03.620Z,21.26
2022-08-22T05:45:12.230Z,21.07
2022-08-22T05:48:24.945Z,21.10
2022-08-22T05:51:44.265Z,21.13
2022-08-22T05:54:59.157Z,21.15
2022-08-22T05:58:35.518Z,21.35
2022-08-22T06:01:51.978Z,21.31
2022-08-22T06:05:00.874Z,21.42
2022-08-22T06:08:21.260Z,21.47
2022-08-22T06:11:33.776Z,21.51
2022-08-22T06:14:45.684Z,21.62
2022-08-22T06:17:52.405Z,21.70
2022-08-22T06:20:56.033Z,21.68
2022-08-22T06:24:03.678Z,21.74
2022-08-22T06:27:11.285Z,21.69
2022-08-22T06:30:16.922Z,21.69
2022-08-22T06:33:24.634Z,21.71
2022-08-22T06:36:30.651Z,21.73
2022-08-22T06:39:34.270Z,21.79
2022-08-22T06:42:44.204Z,21.80
2022-08-22T06:45:46.998Z,21.93
2022-08-22T06:48:49.864Z,21.95
2022-08-22T06:51:53.662Z,21.99
2022-08-22T06:55:02.042Z,21.92
2022-08-22T06:58:17.378Z,21.96
2022-08-22T07:01:27.465Z,22.05
2022-08-22T07:04:31.135Z,22.17
2022-08-22T07:07:36.321Z,22.23
2022-08-22T07:10:44.271Z,22.25
2022-08-22T07:13:53.649Z,22.31
2022-08-22T07:17:00.458Z,22.23
2022-08-22T07:20:27.414Z,22.20
2022-08-22T07:23:45.866Z,22.27
2022-08-22T07:27:31.726Z,22.32
2022-08-22T07:30:57.575Z,22.33
2022-08-22T07:34:25.993Z,22.40
2022-08-22T07:37:43.421Z,22.38
2022-08-22T07:41:17.823Z,22.46
2022-08-22T07:44:26.860Z,22.54
2022-08-22T07:48:03.813Z,22.57
2022-08-22T07:51:15.914Z,22.65
2022-08-22T07:54:42.897Z,22.66
2022-08-22T07:57:52.988Z,22.64
2022-08-22T08:00:56.617Z,22.65
2022-08-22T08:04:02.470Z,22.61
2022-08-22T08:07:08.349Z,22.63
2022-08-22T08:10:16.230Z,22.61
2022-08-22T08:13:26.472Z,22.61
2022-08-22T08:16:34.439Z,22.54
2022-08-22T08:19:40.406Z,22.51
2022-08-22T08:22:46.254Z,22.41
2022-08-22T08:25:57.689Z,22.45
2022-08-22T08:29:03.343Z,22.50
2022-08-22T08:32:09.977Z,22.57
2022-08-22T08:35:42.421Z,22.67
2022-08-22T08:39:16.537Z,22.77
2022-08-22T08:42:56.467Z,22.80
2022-08-22T08:46:27.938Z,22.96
2022-08-22T08:49:42.847Z,23.00
2022-08-22T08:53:03.061Z,22.94
2022-08-22T08:56:38.205Z,22.94
2022-08-22T09:00:07.050Z,22.86
2022-08-22T09:03:09.354Z,22.89
2022-08-22T09:06:59.237Z,22.99
2022-08-22T09:10:34.605Z,23.01
2022-08-22T09:14:06.346Z,23.14
2022-08-22T09:17:44.677Z,23.29
2022-08-22T09:21:02.625Z,23.35
2022-08-22T09:24:23.182Z,23.39
2022-08-22T09:27:35.670Z,23.56
2022-08-22T09:31:48.371Z,23.61
2022-08-22T09:35:01.497Z,23.61
2022-08-22T09:38:03.739Z,23.68
2022-08-22T09:41:27.302Z,23.71
2022-08-22T09:44:59.405Z,23.71
2022-08-22T09:48:18.593Z,23.74
2022-08-22T09:51:55.969Z,23.76
2022-08-22T09:55:36.287Z,23.73
2022-08-22T09:59:11.994Z,23.69
2022-08-22T10:02:22.658Z,23.67
2022-08-22T10:05:43.772Z,23.70
2022-08-22T10:09:12.449Z,23.69
2022-08-22T10:12:24.716Z,23.68
2022-08-22T10:15:42.008Z,23.73
2022-08-22T10:19:10.926Z,23.78
2022-08-22T10:22:30.013Z,23.86
2022-08-22T10:26:01.623Z,23.86
2022-08-22T10:29:49.195Z,23.95
2022-08-22T10:33:12.291Z,23.92
2022-08-22T10:36:27.938Z,23.98
2022-08-22T10:39:52.969Z,24.07
2022-08-22T10:43:15.114Z,23.99
2022-08-22T10:46:24.768Z,24.09
2022-08-22T10:49:35.277Z,24.14
2022-08-22T10:52:49.163Z,24.23
2022-08-22T10:55:58.414Z,24.34
2022-08-22T10:59:05.858Z,24.27
2022-08-22T11:02:30.711Z,24.28
2022-08-22T11:05:42.880Z,24.36
2022-08-22T11:09:03.546Z,24.44
2022-08-22T11:12:19.183Z,24.43
2022-08-22T11:15:55.007Z,24.51
2022-08-22T11:19:24.042Z,24.50
2022-08-22T11:22:34.221Z,24.48
2022-08-22T11:25:53.974Z,24.55
2022-08-22T11:29:13.386Z,24.49
2022-08-22T11:32:28.881Z,24.44
2022-08-22T11:35:41.655Z,24.43
2022-08-22T11:38:59.422Z,24.58
2022-08-22T11:42:13.394Z,24.63
2022-08-22T11:45:21.685Z,24.68
2022-08-22T11:48:35.558Z,24.77
2022-08-22T11:51:58.017Z,24.80
2022-08-22T11:55:34.650Z,24.95
2022-08-22T11:59:02.577Z,25.02
2022-08-22T12:02:12.168Z,25.04
2022-08-22T12:05:26.655Z,25.08
2022-08-22T12:08:28.938Z,25.11
2022-08-22T12:11:54.001Z,25.16
2022-08-22T12:15:19.270Z,25.16
2022-08-22T12:18:33.458Z,25.25
2022-08-22T12:21:52.889Z,25.27
2022-08-22T12:25:28.153Z,25.27
2022-08-22T12:28:52.684Z,25.14
2022-08-22T12:32:27.902Z,25.12
2022-08-22T12:36:08.817Z,25.09
2022-08-22T12:39:20.110Z,25.15
2022-08-22T12:42:25.326Z,25.06
2022-08-22T12:45:33.756Z,25.09
2022-08-22T12:48:35.737Z,25.10
2022-08-22T12:52:04.338Z,25.09
2022-08-22T12:55:21.970Z,25.02
2022-08-22T12:59:09.002Z,25.03
2022-08-22T13:02:23.549Z,24.94
2022-08-22T13:05:29.085Z,25.01
2022-08-22T13:08:35.189Z,24.75
2022-08-22T13:11:40.522Z,24.77
2022-08-22T13:14:46.062Z,24.85
2022-08-22T13:17:53.034Z,24.82
2022-08-22T13:20:58.164Z,24.93
2022-08-22T13:24:10.584Z,25.00
2022-08-22T13:27:20.469Z,25.02
2022-08-22T13:30:28.907Z,24.76
2022-08-22T13:33:35.914Z,24.68
2022-08-22T13:36:51.634Z,24.59
2022-08-22T13:40:00.909Z,24.70
2022-08-22T13:43:09.186Z,24.64
2022-08-22T13:46:11.522Z,24.65
2022-08-22T13:49:19.466Z,24.53
2022-08-22T13:52:31.671Z,24.51
2022-08-22T13:55:48.978Z,24.53
2022-08-22T13:58:57.154Z,24.57
2022-08-22T14:02:09.709Z,24.58
2022-08-22T14:05:46.425Z,24.61
2022-08-22T14:08:52.239Z,24.52
2022-08-22T14:12:11.958Z,24.50
2022-08-22T14:15:23.021Z,24.52
2022-08-22T14:18:31.523Z,24.51
2022-08-22T14:21:53.559Z,24.48
2022-08-22T14:25:07.222Z,24.52
2022-08-22T14:28:30.342Z,24.44
2022-08-22T14:31:33.768Z,24.48
2022-08-22T14:34:41.249Z,24.45
2022-08-22T14:37:52.401Z,24.49
2022-08-22T14:41:08.492Z,24.43
2022-08-22T14:44:32.361Z,24.34
2022-08-22T14:47:55.164Z,24.27
2022-08-22T14:51:21.306Z,24.18
2022-08-22T14:54:28.948Z,24.11
2022-08-22T14:57:34.858Z,24.01
2022-08-22T15:00:40.826Z,23.98
2022-08-22T15:03:44.031Z,23.88
2022-08-22T15:06:55.279Z,23.76
2022-08-22T15:10:07.452Z,23.67
2022-08-22T15:13:21.352Z,23.56
2022-08-22T15:16:34.627Z,23.61
2022-08-22T15:19:41.239Z,23.40
2022-08-22T15:22:46.042Z,23.34
2022-08-22T15:26:17.760Z,23.39
2022-08-22T15:29:26.344Z,23.39
2022-08-22T15:32:31.577Z,23.32
2022-08-22T15:35:39.039Z,23.39
2022-08-22T15:38:56.680Z,23.44
2022-08-22T15:42:00.533Z,23.51
2022-08-22T15:45:04.718Z,23.39
2022-08-22T15:48:25.813Z,23.26
2022-08-22T15:51:41.377Z,23.34
2022-08-22T15:54:46.885Z,23.37
2022-08-22T15:58:05.014Z,23.27
2022-08-22T16:01:18.917Z,23.16
2022-08-22T16:04:47.139Z,23.12
2022-08-22T16:07:58.210Z,23.16
2022-08-22T16:11:03.510Z,23.22
2022-08-22T16:14:21.688Z,23.26
2022-08-22T16:17:30.080Z,23.34
2022-08-22T16:20:32.066Z,23.33
2022-08-22T16:23:56.263Z,23.36
2022-08-22T16:26:58.715Z,23.29
2022-08-22T16:30:09.281Z,23.21
2022-08-22T16:33:27.288Z,23.22
2022-08-22T16:37:03.682Z,23.29
2022-08-22T16:40:18.465Z,23.20
2022-08-22T16:43:21.484Z,23.15
2022-08-22T16:46:31.369Z,23.10
2022-08-22T16:49:49.489Z,23.05
2022-08-22T16:52:56.729Z,23.10
2022-08-22T16:56:13.832Z,23.06
2022-08-22T16:59:33.215Z,23.03
2022-08-22T17:02:52.399Z,23.07
2022-08-22T17:06:00.153Z,22.94
2022-08-22T17:09:21.691Z,22.96
2022-08-22T17:12:42.341Z,22.85
2022-08-22T17:16:07.016Z,22.90
2022-08-22T17:19:31.520Z,22.94
2022-08-22T17:22:48.838Z,22.97
2022-08-22T17:26:12.062Z,23.04
2022-08-22T17:29:26.728Z,23.02
2022-08-22T17:32:34.740Z,23.00
2022-08-22T17:35:43.098Z,22.98
2022-08-22T17:39:03.380Z,23.01
2022-08-22T17:42:36.355Z,22.86
2022-08-22T17:46:03.269Z,22.72
2022-08-22T17:49:11.485Z,22.55
2022-08-22T17:52:22.317Z,22.52
2022-08-22T17:55:34.021Z,22.54
2022-08-22T17:58:45.652Z,22.46
2022-08-22T18:02:08.401Z,22.44
2022-08-22T18:06:01.636Z,22.46
2022-08-22T18:09:18.510Z,22.47
2022-08-22T18:12:34.054Z,22.42
2022-08-22T18:15:47.674Z,22.50
2022-08-22T18:18:49.906Z,22.42
2022-08-22T18:21:59.582Z,22.49
2022-08-22T18:25:11.022Z,22.48
2022-08-22T18:28:26.877Z,22.48
2022-08-22T18:31:37.790Z,22.49
2022-08-22T18:34:56.133Z,22.41
2022-08-22T18:38:26.429Z,22.44
2022-08-22T18:41:35.531Z,22.32
2022-08-22T18:44:40.062Z,22.20
2022-08-22T18:47:42.444Z,22.13
2022-08-22T18:50:45.390Z,22.01
2022-08-22T18:53:52.967Z,22.05
2022-08-22T18:57:08.083Z,22.07
2022-08-22T19:00:20.726Z,22.08
2022-08-22T19:03:40.273Z,22.05
2022-08-22T19:07:24.314Z,22.12
2022-08-22T19:10:35.859Z,22.33
2022-08-22T19:14:02.553Z,22.37
2022-08-22T19:17:46.537Z,22.39
2022-08-22T19:21:35.690Z,22.40
2022-08-22T19:25:04.587Z,22.40
2022-08-22T19:28:11.319Z,22.43
2022-08-22T19:31:24.880Z,22.48
2022-08-22T19:34:29.694Z,22.57
2022-08-22T19:37:55.425Z,22.39
2022-08-22T19:40:58.441Z,22.42
2022-08-22T19:44:01.018Z,22.30
2022-08-22T19:47:07.215Z,22.28
2022-08-22T19:50:27.957Z,22.31
2022-08-22T19:53:47.219Z,22.38
2022-08-22T19:57:20.838Z,22.23
2022-08-22T20:00:44.495Z,22.30
2022-08-22T20:03:55.257Z,22.35
2022-08-22T20:07:22.613Z,22.23
2022-08-22T20:11:02.477Z,22.24
2022-08-22T20:14:11.909Z,22.32
2022-08-22T20:17:34.143Z,22.28
2022-08-22T20:20:55.258Z,22.15
2022-08-22T20:23:57.813Z,22.02
2022-08-22T20:27:14.006Z,21.98
2022-08-22T20:30:28.179Z,21.98
2022-08-22T20:33:39.724Z,22.06
2022-08-22T20:36:45.703Z,22.12
2022-08-22T20:39:58.701Z,22.09
2022-08-22T20:43:10.757Z,22.08
2022-08-22T20:46:37.766Z,22.30
2022-08-22T20:49:51.813Z,22.13
2022-08-22T20:53:09.657Z,21.92
2022-08-22T20:56:12.551Z,22.02
2022-08-22T20:59:23.643Z,22.10
2022-08-22T21:02:33.862Z,22.00
2022-08-22T21:05:41.686Z,21.91
2022-08-22T21:08:45.978Z,22.01
2022-08-22T21:11:50.654Z,21.99
2022-08-22T21:14:53.087Z,21.99
2022-08-22T21:17:55.163Z,22.12
2022-08-22T21:21:18.859Z,22.19
2022-08-22T21:24:20.949Z,22.16
2022-08-22T21:27:34.220Z,21.99
2022-08-22T21:30:36.297Z,22.04
2022-08-22T21:33:45.143Z,21.99
2022-08-22T21:36:50.891Z,22.06
2022-08-22T21:40:09.176Z,21.95
2022-08-22T21:43:53.976Z,22.00
2022-08-22T21:47:13.253Z,21.98
2022-08-22T21:50:19.121Z,21.92
2022-08-22T21:53:28.667Z,21.86
2022-08-22T21:56:30.733Z,21.87
2022-08-22T21:59:51.773Z,21.95
2022-08-22T22:03:02.886Z,21.95
2022-08-22T22:06:06.582Z,22.00
2022-08-22T22:09:13.243Z,21.92
2022-08-22T22:12:17.506Z,21.98
2022-08-22T22:15:23.697Z,22.06
2022-08-22T22:18:30.299Z,21.99
2022-08-22T22:21:32.407Z,21.90
2022-08-22T22:24:34.799Z,21.84
2022-08-22T22:27:37.399Z,21.93
2022-08-22T22:30:40.281Z,21.85
2022-08-22T22:33:43.086Z,21.90
2022-08-22T22:36:45.833Z,21.90
2022-08-22T22:39:47.948Z,21.80
2022-08-22T22:42:50.694Z,21.60
2022-08-22T22:45:52.789Z,21.57
2022-08-22T22:48:56.720Z,21.63
2022-08-22T22:52:01.911Z,21.66
2022-08-22T22:55:07.549Z,21.81
2022-08-22T22:58:10.341Z,21.68
2022-08-22T23:01:21.256Z,21.61
2022-08-22T23:04:23.382Z,21.64
2022-08-22T23:07:26.734Z,21.59
2022-08-22T23:10:31.439Z,21.56
2022-08-22T23:13:35.245Z,21.51
2022-08-22T23:16:42.106Z,21.43
2022-08-22T23:19:46.306Z,21.48
2022-08-22T23:22:49.902Z,21.49
2022-08-22T23:25:52.374Z,21.39
2022-08-22T23:28:54.753Z,21.41
2022-08-22T23:32:03.366Z,21.36
2022-08-22T23:35:06.389Z,21.44
2022-08-22T23:38:08.725Z,21.35
2022-08-22T23:41:12.302Z,21.47
2022-08-22T23:44:17.917Z,21.29
2022-08-22T23:47:19.981Z,21.22
2022-08-22T23:50:22.299Z,21.26
2022-08-22T23:53:24.431Z,21.31
2022-08-22T23:56:32.560Z,21.32
2022-08-22T23:59:36.978Z,21.41
